Terminal Aerodrome Forecast
Issued by NWS Twin Cities, MN

Home | Current Version | Previous Version | Graphics & Text | Print | Product List | Glossary On
Versions: 1 2 3 4 5 6 7 8 9 10 11 12 13 14 15 16 17 18 19 20 21 22 23 24 25
717
FTUS43 KMPX 181452 AAA
TAFMSP
TAF AMD
KMSP 181452Z 1815/1918 33010KT P6SM BKN150
     FM181700 32013G19KT P6SM SCT150
     FM182000 31017G25KT P6SM SCT040
     FM190500 31012KT P6SM SKC
     FM191100 28006KT P6SM FEW250
     FM191500 24006KT P6SM FEW250=

USA.gov is the U.S. government's official web portal to all federal, state and local government web resources and services.